Time;durP1;ratioP1;P1;durP2;ratioP2;P2;SDS_P1;SDS_P2;PMS_P1;PMS_P2;Temp;Humidity;BMP_temperature;BMP_pressure;BME280_temperature;BME280_humidity;BME280_pressure;Samples;Min_cycle;Max_cycle;Signal;HPM_P1;HPM_P2
2022/04/08 00:00:24;;;;;;;3.05;0.70;;;5.80;99.90;;;;;;5106094;27;20681;-59
2022/04/08 00:03:03;;;;;;;2.85;1.35;;;5.90;99.90;;;;;;5086024;28;20568;-58
2022/04/08 00:05:43;;;;;;;1.33;0.63;;;5.90;99.90;;;;;;5147299;27;20560;-58
2022/04/08 00:08:23;;;;;;;2.17;0.60;;;5.80;99.90;;;;;;5126549;27;20566;-59
2022/04/08 00:11:03;;;;;;;1.23;0.73;;;5.70;99.90;;;;;;5126385;27;20902;-58
2022/04/08 00:13:43;;;;;;;1.27;0.52;;;5.70;99.90;;;;;;5147136;27;20562;-58
2022/04/08 00:16:23;;;;;;;4.10;0.80;;;5.60;99.90;;;;;;5085882;28;20664;-59
2022/04/08 00:19:02;;;;;;;3.47;0.70;;;5.60;99.90;;;;;;5147485;27;20539;-59
2022/04/08 00:21:42;;;;;;;1.23;0.70;;;5.70;99.90;;;;;;5126437;27;20535;-58
2022/04/08 00:24:22;;;;;;;2.50;0.60;;;5.60;99.90;;;;;;5086038;27;20997;-59
2022/04/08 00:27:02;;;;;;;0.98;0.65;;;5.50;99.90;;;;;;5147517;27;20646;-58
2022/04/08 00:29:42;;;;;;;2.20;0.95;;;5.50;99.90;;;;;;5086169;28;20551;-59
2022/04/08 00:32:21;;;;;;;1.35;0.55;;;5.60;99.90;;;;;;5126518;27;20683;-59
2022/04/08 00:35:01;;;;;;;3.17;0.50;;;5.60;99.90;;;;;;5127270;27;20671;-58
2022/04/08 00:37:41;;;;;;;2.03;1.00;;;5.60;99.90;;;;;;5106287;27;20533;-59
2022/04/08 00:40:21;;;;;;;1.67;0.95;;;5.60;99.90;;;;;;5085732;27;20554;-58
2022/04/08 00:43:10;;;;;;;2.45;0.60;;;5.50;99.90;;;;;;5126724;27;20671;-58
2022/04/08 00:45:48;;;;;;;1.55;0.70;;;5.60;99.90;;;;;;5086278;27;20564;-59
2022/04/08 00:48:28;;;;;;;2.25;0.75;;;5.50;99.90;;;;;;5086108;28;20544;-58
2022/04/08 00:51:09;;;;;;;2.25;0.60;;;5.40;99.90;;;;;;5126704;27;20900;-59
2022/04/08 00:53:49;;;;;;;1.05;0.73;;;5.30;99.90;;;;;;5086061;27;20980;-58
2022/04/08 00:56:30;;;;;;;1.17;0.80;;;5.20;99.90;;;;;;5086185;28;20667;-58
2022/04/08 00:59:09;;;;;;;2.47;0.75;;;5.30;99.90;;;;;;5126238;27;20552;-59
2022/04/08 01:01:49;;;;;;;3.88;1.02;;;5.20;99.90;;;;;;5151272;27;20617;-58
2022/04/08 01:04:29;;;;;;;1.90;0.80;;;5.20;99.90;;;;;;5085945;27;20543;-58
2022/04/08 01:07:09;;;;;;;2.90;0.80;;;5.10;99.90;;;;;;5086359;28;20537;-59
2022/04/08 01:09:49;;;;;;;5.22;0.70;;;5.00;99.90;;;;;;5126540;27;20562;-59
2022/04/08 01:12:28;;;;;;;2.78;1.00;;;5.00;99.90;;;;;;5126616;27;20691;-59
2022/04/08 01:15:10;;;;;;;1.10;0.63;;;5.20;99.90;;;;;;5126666;27;20540;-57
2022/04/08 01:17:50;;;;;;;2.80;0.85;;;5.30;99.90;;;;;;5126641;27;20655;-58
2022/04/08 01:20:29;;;;;;;1.90;0.80;;;5.40;99.90;;;;;;5126336;27;20679;-58
2022/04/08 01:23:10;;;;;;;3.55;0.80;;;5.50;99.90;;;;;;5126667;27;20548;-59
2022/04/08 01:25:49;;;;;;;1.08;0.60;;;5.30;99.90;;;;;;5085912;27;20554;-58
2022/04/08 01:28:29;;;;;;;2.22;0.65;;;5.20;99.90;;;;;;5085830;27;20543;-58
2022/04/08 01:31:09;;;;;;;3.05;1.17;;;5.20;99.90;;;;;;5085843;27;20565;-59
2022/04/08 01:33:48;;;;;;;2.72;0.60;;;5.20;99.90;;;;;;5085810;28;20580;-58
2022/04/08 01:36:28;;;;;;;2.15;0.73;;;5.20;99.90;;;;;;5085965;28;21034;-59
2022/04/08 01:39:08;;;;;;;1.25;0.63;;;5.10;99.90;;;;;;5085811;27;21329;-58
2022/04/08 01:41:48;;;;;;;2.75;1.00;;;5.10;99.90;;;;;;5085815;27;20578;-59
2022/04/08 01:44:28;;;;;;;1.85;1.00;;;5.20;99.90;;;;;;5106179;27;20563;-60
2022/04/08 01:47:08;;;;;;;2.00;0.90;;;5.20;99.90;;;;;;5126744;27;20691;-59
2022/04/08 01:49:48;;;;;;;4.43;0.70;;;5.00;99.90;;;;;;5144652;27;21004;-59
2022/04/08 01:52:27;;;;;;;2.15;0.93;;;4.80;99.90;;;;;;5076578;27;21093;-59
2022/04/08 01:55:08;;;;;;;2.60;1.02;;;4.60;99.90;;;;;;5105803;27;20809;-58
2022/04/08 01:57:47;;;;;;;1.98;0.52;;;4.50;99.90;;;;;;5106304;27;20537;-59
2022/04/08 02:00:27;;;;;;;1.10;0.55;;;4.50;99.90;;;;;;5085378;27;20550;-59
2022/04/08 02:03:07;;;;;;;3.35;1.00;;;4.60;99.90;;;;;;5085818;28;21025;-59
2022/04/08 02:05:47;;;;;;;2.83;1.00;;;4.60;99.90;;;;;;5085250;27;20974;-59
2022/04/08 02:08:27;;;;;;;2.50;0.88;;;4.60;99.90;;;;;;5126433;27;20544;-58
2022/04/08 02:11:06;;;;;;;4.30;0.90;;;4.70;99.90;;;;;;5147462;27;20542;-58
2022/04/08 02:13:46;;;;;;;1.75;0.68;;;4.70;99.90;;;;;;5085891;28;20549;-58
2022/04/08 02:16:26;;;;;;;2.20;0.93;;;4.70;99.90;;;;;;5085602;28;20671;-59
2022/04/08 02:19:06;;;;;;;1.33;0.70;;;4.60;99.90;;;;;;5086231;27;20612;-58
2022/04/08 02:21:46;;;;;;;2.28;0.88;;;4.80;99.90;;;;;;5085232;28;20679;-58
2022/04/08 02:24:25;;;;;;;1.45;0.55;;;4.80;99.90;;;;;;5106296;27;20537;-59
2022/04/08 02:27:06;;;;;;;2.33;0.70;;;4.80;99.90;;;;;;5147133;27;20550;-59
2022/04/08 02:29:46;;;;;;;2.78;0.80;;;4.70;99.90;;;;;;5146877;27;20968;-59
2022/04/08 02:32:27;;;;;;;2.90;0.80;;;4.60;99.90;;;;;;5086153;28;20668;-58
2022/04/08 02:35:08;;;;;;;2.28;0.60;;;4.60;99.90;;;;;;5106331;27;20533;-58
2022/04/08 02:37:48;;;;;;;4.47;0.73;;;4.60;99.90;;;;;;5086256;27;20965;-58
2022/04/08 02:40:28;;;;;;;1.95;0.68;;;4.70;99.90;;;;;;5126905;27;20679;-59
2022/04/08 02:43:07;;;;;;;3.58;0.80;;;4.90;99.90;;;;;;5162561;27;20682;-58
2022/04/08 02:45:47;;;;;;;1.75;0.70;;;4.90;99.90;;;;;;5086042;27;20549;-59
2022/04/08 02:48:27;;;;;;;2.47;0.55;;;4.90;99.90;;;;;;5086067;28;20568;-58
2022/04/08 02:51:07;;;;;;;2.40;0.73;;;4.90;99.90;;;;;;5126097;27;21180;-59
2022/04/08 02:53:47;;;;;;;1.63;0.70;;;4.80;99.90;;;;;;5106227;27;20557;-59
2022/04/08 02:56:26;;;;;;;1.17;0.60;;;4.70;99.90;;;;;;5085433;27;20570;-58
2022/04/08 02:59:06;;;;;;;4.90;0.98;;;4.80;99.90;;;;;;5146431;27;20549;-57
2022/04/08 03:01:46;;;;;;;3.42;0.57;;;4.80;99.90;;;;;;5085340;27;20581;-59
2022/04/08 03:04:26;;;;;;;2.60;0.93;;;4.80;99.90;;;;;;5085807;28;21110;-58
2022/04/08 03:07:06;;;;;;;4.88;0.88;;;4.90;99.90;;;;;;5085445;27;21148;-57
2022/04/08 03:09:45;;;;;;;2.10;0.60;;;4.80;99.90;;;;;;5147408;27;20657;-59
2022/04/08 03:12:25;;;;;;;1.05;0.60;;;4.80;99.90;;;;;;5085015;27;20578;-58
2022/04/08 03:15:07;;;;;;;3.08;0.82;;;4.70;99.90;;;;;;5085820;28;20676;-58
2022/04/08 03:17:49;;;;;;;2.80;0.60;;;4.70;99.90;;;;;;5085704;28;20672;-59
2022/04/08 03:20:28;;;;;;;2.50;0.80;;;4.80;99.90;;;;;;5085479;28;21019;-58
2022/04/08 03:23:08;;;;;;;1.52;0.70;;;4.70;99.90;;;;;;5085892;28;20554;-58
2022/04/08 03:25:48;;;;;;;3.58;0.70;;;4.60;99.90;;;;;;5147235;27;20560;-58
2022/04/08 03:28:30;;;;;;;3.00;0.80;;;4.70;99.90;;;;;;5127198;27;20541;-58
2022/04/08 03:31:11;;;;;;;2.25;1.17;;;4.60;99.90;;;;;;5146837;27;20653;-59
2022/04/08 03:33:50;;;;;;;2.03;0.50;;;4.50;99.90;;;;;;5106666;27;20542;-59
2022/04/08 03:36:30;;;;;;;2.55;0.73;;;4.60;99.90;;;;;;5146982;27;20568;-58
2022/04/08 03:39:10;;;;;;;2.83;0.38;;;4.70;99.90;;;;;;5085609;27;20616;-58
2022/04/08 03:41:50;;;;;;;1.05;0.60;;;4.60;99.90;;;;;;5126390;27;20663;-58
2022/04/08 03:44:30;;;;;;;3.10;0.82;;;4.60;99.90;;;;;;5147982;27;20665;-58
2022/04/08 03:47:10;;;;;;;2.30;0.65;;;4.50;99.90;;;;;;5126663;27;20663;-58
2022/04/08 03:49:50;;;;;;;2.58;0.70;;;4.50;99.90;;;;;;5147383;27;20556;-58
2022/04/08 03:52:32;;;;;;;2.72;1.02;;;4.30;99.90;;;;;;5156834;27;21004;-58
2022/04/08 03:55:11;;;;;;;3.03;1.10;;;4.30;99.90;;;;;;5147231;27;20550;-59
2022/04/08 03:57:50;;;;;;;2.85;0.90;;;4.30;99.90;;;;;;5085662;27;20587;-59
2022/04/08 04:00:31;;;;;;;1.58;0.68;;;4.40;99.90;;;;;;5126292;27;20570;-59
2022/04/08 04:03:10;;;;;;;3.10;1.23;;;4.50;99.90;;;;;;5106069;27;20550;-59
2022/04/08 04:05:50;;;;;;;2.97;0.82;;;4.50;99.90;;;;;;5085854;27;20566;-59
2022/04/08 04:08:30;;;;;;;2.40;0.65;;;4.50;99.90;;;;;;5083774;28;20667;-58
2022/04/08 04:11:10;;;;;;;3.38;1.00;;;4.50;99.90;;;;;;5085918;27;20552;-58
2022/04/08 04:13:49;;;;;;;1.85;1.00;;;4.60;99.90;;;;;;5106078;27;20590;-59
2022/04/08 04:16:30;;;;;;;1.50;0.65;;;4.60;99.90;;;;;;5147447;27;20584;-58
2022/04/08 04:19:09;;;;;;;2.50;0.70;;;4.50;99.90;;;;;;5085779;27;20679;-58
2022/04/08 04:21:50;;;;;;;1.92;0.80;;;4.30;99.90;;;;;;5126453;27;20576;-58
2022/04/08 04:24:29;;;;;;;3.05;1.05;;;4.20;99.90;;;;;;5086066;27;20577;-59
2022/04/08 04:27:09;;;;;;;1.23;0.60;;;4.10;99.90;;;;;;5106463;27;21105;-58
2022/04/08 04:29:48;;;;;;;2.35;0.95;;;4.10;99.90;;;;;;5085836;27;21092;-59
2022/04/08 04:32:28;;;;;;;3.70;1.00;;;4.10;99.90;;;;;;5085898;27;20585;-57
2022/04/08 04:35:09;;;;;;;1.70;0.77;;;4.10;99.90;;;;;;5106381;27;20542;-57
2022/04/08 04:37:49;;;;;;;5.88;1.05;;;4.10;99.90;;;;;;5127114;27;20539;-57
2022/04/08 04:40:29;;;;;;;2.58;1.00;;;4.00;99.90;;;;;;5085563;28;20543;-58
2022/04/08 04:43:09;;;;;;;0.75;0.55;;;3.90;99.90;;;;;;5078330;28;20689;-58
2022/04/08 04:45:49;;;;;;;3.70;1.00;;;3.90;99.90;;;;;;5086229;28;20553;-58
2022/04/08 04:48:29;;;;;;;2.67;1.30;;;3.90;99.90;;;;;;5147610;27;20880;-58
2022/04/08 04:51:11;;;;;;;1.10;0.85;;;4.00;99.90;;;;;;5085661;27;21010;-58
2022/04/08 04:53:52;;;;;;;2.55;1.15;;;4.00;99.90;;;;;;5118959;27;20586;-58
2022/04/08 04:56:31;;;;;;;2.88;0.90;;;4.10;99.90;;;;;;5080152;27;20605;-58
2022/04/08 04:59:11;;;;;;;5.50;1.00;;;4.30;99.90;;;;;;5146569;27;20547;-58
2022/04/08 05:01:51;;;;;;;3.45;0.55;;;4.40;99.90;;;;;;5106086;27;20580;-59
2022/04/08 05:04:31;;;;;;;2.90;1.08;;;4.40;99.90;;;;;;5106491;27;20546;-58
2022/04/08 05:07:11;;;;;;;2.35;0.95;;;4.50;99.90;;;;;;5127272;27;21075;-59
2022/04/08 05:09:51;;;;;;;0.98;0.40;;;4.50;99.90;;;;;;5085408;27;20991;-57
2022/04/08 05:12:30;;;;;;;2.97;0.65;;;4.50;99.90;;;;;;5087855;27;20560;-57
2022/04/08 05:15:11;;;;;;;2.72;0.98;;;4.60;99.90;;;;;;5126529;27;20561;-58
2022/04/08 05:17:52;;;;;;;1.13;0.75;;;4.60;99.90;;;;;;5085621;27;21072;-59
2022/04/08 05:20:32;;;;;;;4.15;1.58;;;4.70;99.90;;;;;;5085486;27;20977;-58
2022/04/08 05:23:11;;;;;;;2.70;1.00;;;4.60;99.90;;;;;;5085427;28;20564;-58
2022/04/08 05:25:51;;;;;;;1.88;0.77;;;4.60;99.90;;;;;;5146780;27;20550;-59
2022/04/08 05:28:31;;;;;;;3.95;1.13;;;4.70;99.90;;;;;;5125908;27;21032;-59
2022/04/08 05:31:11;;;;;;;1.92;0.65;;;4.90;99.90;;;;;;5066243;28;20611;-58
2022/04/08 05:33:51;;;;;;;3.80;0.70;;;5.00;99.90;;;;;;5147933;27;20534;-57
2022/04/08 05:36:30;;;;;;;3.20;0.70;;;5.10;99.90;;;;;;5086014;27;20552;-58
2022/04/08 05:39:10;;;;;;;2.47;1.13;;;5.30;99.90;;;;;;5147409;27;20546;-58
2022/04/08 05:41:50;;;;;;;1.08;0.43;;;5.30;99.90;;;;;;5106312;27;20580;-59
2022/04/08 05:44:30;;;;;;;3.00;0.88;;;5.40;99.90;;;;;;5086088;27;20604;-58
2022/04/08 05:47:10;;;;;;;2.47;0.88;;;5.40;99.90;;;;;;5147812;27;20539;-58
2022/04/08 05:49:49;;;;;;;4.05;1.13;;;5.40;99.90;;;;;;5127296;27;20532;-58
2022/04/08 05:52:29;;;;;;;4.15;1.00;;;5.50;99.90;;;;;;5086213;28;20560;-58
2022/04/08 05:55:10;;;;;;;2.75;0.95;;;5.50;99.90;;;;;;5148054;27;20569;-59
2022/04/08 05:57:49;;;;;;;1.23;0.70;;;5.60;99.90;;;;;;5086014;27;21092;-58
2022/04/08 06:00:29;;;;;;;2.80;1.15;;;5.80;99.90;;;;;;5106322;27;20545;-59
2022/04/08 06:03:09;;;;;;;4.38;1.05;;;6.00;99.90;;;;;;5162420;27;20552;-58
2022/04/08 06:05:48;;;;;;;2.72;0.77;;;6.20;99.90;;;;;;5127560;27;20536;-58
2022/04/08 06:08:28;;;;;;;4.43;0.82;;;6.40;99.90;;;;;;5085918;27;20573;-58
2022/04/08 06:11:08;;;;;;;2.22;0.70;;;6.60;99.90;;;;;;5085840;28;21006;-59
2022/04/08 06:13:48;;;;;;;1.27;0.82;;;6.90;99.90;;;;;;5126804;27;20548;-58
2022/04/08 06:16:28;;;;;;;3.78;1.10;;;7.40;99.90;;;;;;5106287;27;20549;-58
2022/04/08 06:19:08;;;;;;;3.08;1.27;;;7.70;99.90;;;;;;5085821;28;20539;-58
2022/04/08 06:21:48;;;;;;;3.83;1.02;;;7.80;99.90;;;;;;5085836;28;20559;-57
2022/04/08 06:24:27;;;;;;;2.88;0.80;;;7.90;99.90;;;;;;5085871;28;21068;-59
2022/04/08 06:27:07;;;;;;;3.13;0.98;;;8.00;99.90;;;;;;5126801;27;20536;-58
2022/04/08 06:29:47;;;;;;;2.63;1.25;;;8.30;99.90;;;;;;5126394;27;20540;-58
2022/04/08 06:32:27;;;;;;;4.97;0.90;;;8.30;99.90;;;;;;5106254;27;20550;-58
2022/04/08 06:35:07;;;;;;;3.40;0.75;;;8.40;99.90;;;;;;5085959;27;20569;-59
2022/04/08 06:37:46;;;;;;;3.60;1.15;;;8.40;99.90;;;;;;5106545;27;21032;-57
2022/04/08 06:40:26;;;;;;;3.42;1.08;;;8.40;99.90;;;;;;5085427;27;20990;-57
2022/04/08 06:43:07;;;;;;;2.53;0.60;;;8.50;99.90;;;;;;5086013;28;20558;-58
2022/04/08 06:45:46;;;;;;;2.97;1.05;;;8.50;99.90;;;;;;5086020;28;20596;-58
2022/04/08 06:48:26;;;;;;;2.17;1.00;;;8.40;99.90;;;;;;5086218;28;20553;-58
2022/04/08 06:51:06;;;;;;;4.07;0.90;;;8.70;99.90;;;;;;5147658;27;21012;-58
2022/04/08 06:53:45;;;;;;;2.97;0.90;;;9.00;99.90;;;;;;5127034;27;20555;-58
2022/04/08 06:56:25;;;;;;;1.60;0.80;;;9.20;99.90;;;;;;5086515;28;20676;-58
2022/04/08 06:59:05;;;;;;;3.13;1.10;;;9.30;99.90;;;;;;5106277;27;20650;-58
2022/04/08 07:01:45;;;;;;;3.10;1.13;;;9.00;99.90;;;;;;5147343;27;20535;-58
2022/04/08 07:04:25;;;;;;;6.28;1.30;;;8.90;99.90;;;;;;5147394;27;21082;-58
2022/04/08 07:07:05;;;;;;;6.75;1.48;;;9.00;99.90;;;;;;5085773;27;20895;-58
2022/04/08 07:09:44;;;;;;;4.90;1.60;;;9.10;99.90;;;;;;5147014;27;21153;-58
2022/04/08 07:12:25;;;;;;;3.03;1.23;;;9.30;99.90;;;;;;5085993;28;20543;-59
2022/04/08 07:15:05;;;;;;;2.50;1.00;;;9.30;99.90;;;;;;5085117;28;20573;-58
2022/04/08 07:17:46;;;;;;;5.47;1.38;;;9.30;99.90;;;;;;5086000;28;20656;-58
2022/04/08 07:20:36;;;;;;;2.75;1.05;;;9.50;99.90;;;;;;5103700;27;20598;-60
2022/04/08 07:23:16;;;;;;;5.47;0.68;;;9.70;99.90;;;;;;5146157;27;20531;-60
2022/04/08 07:25:54;;;;;;;3.13;0.98;;;9.80;99.90;;;;;;5125368;27;20547;-59
2022/04/08 07:28:34;;;;;;;2.40;1.00;;;9.90;99.90;;;;;;5105241;27;20591;-60
2022/04/08 07:31:14;;;;;;;6.65;1.52;;;10.00;99.90;;;;;;5104180;27;21230;-59
2022/04/08 07:33:54;;;;;;;3.25;1.20;;;10.20;99.90;;;;;;5084506;27;21087;-60
2022/04/08 07:36:34;;;;;;;4.25;1.58;;;10.40;99.90;;;;;;5105291;27;20542;-60
2022/04/08 07:39:14;;;;;;;2.65;1.27;;;10.40;99.90;;;;;;5084451;28;20580;-59
2022/04/08 07:41:53;;;;;;;2.55;1.20;;;10.40;99.90;;;;;;5105230;27;20546;-60
2022/04/08 07:44:33;;;;;;;2.50;1.15;;;10.50;99.90;;;;;;5084560;27;20565;-59
2022/04/08 07:47:14;;;;;;;1.77;1.02;;;10.60;99.90;;;;;;5084859;28;21071;-59
2022/04/08 07:49:57;;;;;;;3.55;1.33;;;10.70;99.90;;;;;;5084127;27;21168;-59
2022/04/08 07:52:37;;;;;;;3.33;1.25;;;10.60;99.90;;;;;;5105234;27;21089;-59
2022/04/08 07:55:20;;;;;;;3.00;1.10;;;10.30;99.90;;;;;;5084572;27;20573;-59
2022/04/08 07:57:59;;;;;;;2.58;1.02;;;10.20;99.90;;;;;;5124199;27;20536;-59
2022/04/08 08:00:39;;;;;;;3.28;0.90;;;10.30;99.90;;;;;;5084076;27;20553;-59
2022/04/08 08:03:19;;;;;;;4.63;0.95;;;10.20;99.90;;;;;;5084412;27;20551;-59
2022/04/08 08:05:58;;;;;;;4.22;2.05;;;10.10;99.90;;;;;;5105988;27;20885;-57
2022/04/08 08:08:39;;;;;;;3.25;1.15;;;10.00;99.90;;;;;;5084949;27;21084;-59
2022/04/08 08:11:18;;;;;;;3.65;1.25;;;10.20;99.90;;;;;;5124722;27;20667;-60
2022/04/08 08:13:58;;;;;;;2.47;1.10;;;10.60;99.90;;;;;;5104689;27;20538;-59
2022/04/08 08:16:38;;;;;;;5.18;1.20;;;10.80;99.90;;;;;;5105077;27;20558;-59
2022/04/08 08:19:17;;;;;;;2.05;0.93;;;10.70;99.90;;;;;;5104359;27;20906;-59
2022/04/08 08:21:57;;;;;;;5.40;1.13;;;10.60;99.90;;;;;;5084966;28;20543;-59
2022/04/08 08:24:37;;;;;;;1.83;0.90;;;10.80;99.90;;;;;;5084271;28;21037;-60
2022/04/08 08:27:17;;;;;;;5.00;1.25;;;11.00;99.90;;;;;;5084987;27;20560;-59
2022/04/08 08:29:57;;;;;;;3.95;1.00;;;11.20;99.90;;;;;;5084001;27;20581;-60
2022/04/08 08:32:37;;;;;;;3.95;0.90;;;11.50;99.90;;;;;;5146318;27;20564;-59
2022/04/08 08:35:18;;;;;;;2.70;1.13;;;11.70;99.90;;;;;;5085177;28;21052;-59
2022/04/08 08:37:58;;;;;;;2.20;1.00;;;11.70;99.90;;;;;;5085080;27;21026;-59
2022/04/08 08:40:38;;;;;;;2.70;1.13;;;11.90;99.90;;;;;;5104716;27;20575;-59
2022/04/08 08:43:18;;;;;;;3.05;0.82;;;12.00;99.90;;;;;;5125360;27;21200;-59
2022/04/08 08:45:58;;;;;;;2.92;1.60;;;12.00;99.90;;;;;;5085069;27;20971;-59
2022/04/08 08:48:38;;;;;;;6.25;1.38;;;12.30;99.90;;;;;;5105331;27;20583;-59
2022/04/08 08:51:20;;;;;;;3.85;1.23;;;12.40;99.90;;;;;;5084799;27;20915;-59
2022/04/08 08:53:58;;;;;;;2.88;1.20;;;12.30;99.90;;;;;;5083675;27;20986;-59
2022/04/08 08:56:38;;;;;;;1.38;1.15;;;12.30;99.90;;;;;;5104069;27;20575;-59
2022/04/08 08:59:18;;;;;;;2.38;0.77;;;12.40;99.90;;;;;;5082091;28;20672;-59
2022/04/08 09:02:02;;;;;;;2.90;0.80;;;12.20;99.90;;;;;;5085071;28;20663;-59
2022/04/08 09:04:43;;;;;;;2.65;0.65;;;12.00;99.90;;;;;;5084603;28;21196;-59
2022/04/08 09:07:28;;;;;;;3.40;1.17;;;11.80;99.90;;;;;;5085178;28;20664;-59
2022/04/08 09:10:08;;;;;;;3.42;1.15;;;11.70;99.90;;;;;;5084658;28;20560;-59
2022/04/08 09:12:54;;;;;;;6.25;0.90;;;11.70;99.90;;;;;;5105821;27;20545;-59
2022/04/08 09:15:37;;;;;;;1.95;0.85;;;11.70;99.90;;;;;;5105923;27;20533;-59
2022/04/08 09:18:16;;;;;;;4.00;1.05;;;11.60;99.90;;;;;;5085322;28;20655;-59
2022/04/08 09:20:58;;;;;;;1.38;1.10;;;11.60;99.90;;;;;;5083921;28;20652;-59
2022/04/08 09:23:40;;;;;;;1.48;0.90;;;12.00;99.90;;;;;;5083541;28;20551;-59
2022/04/08 09:26:20;;;;;;;2.25;0.93;;;12.20;99.90;;;;;;5085284;27;20920;-59
2022/04/08 09:29:03;;;;;;;1.80;0.88;;;12.80;99.90;;;;;;5084437;27;21164;-60
2022/04/08 09:31:43;;;;;;;2.47;1.02;;;13.40;99.90;;;;;;5084810;28;20547;-59
2022/04/08 09:34:23;;;;;;;2.15;0.68;;;13.70;99.90;;;;;;5084012;27;20573;-60
2022/04/08 09:37:10;;;;;;;2.10;1.15;;;13.80;99.90;;;;;;5105367;27;20564;-59
2022/04/08 09:39:57;;;;;;;2.10;0.75;;;13.80;99.90;;;;;;5124564;27;20567;-59
2022/04/08 09:42:44;;;;;;;2.67;1.10;;;13.50;99.70;;;;;;5146420;27;20538;-59
2022/04/08 09:45:30;;;;;;;2.20;0.70;;;13.30;99.40;;;;;;5105068;27;20899;-59
2022/04/08 09:48:10;;;;;;;2.20;0.70;;;13.10;99.70;;;;;;5105152;27;20955;-59
2022/04/08 09:50:51;;;;;;;2.58;0.90;;;13.20;99.50;;;;;;5104266;27;21002;-59
2022/04/08 09:53:31;;;;;;;3.25;0.95;;;13.20;99.40;;;;;;5084299;28;20672;-59
2022/04/08 09:56:19;;;;;;;3.40;1.02;;;13.40;98.90;;;;;;5125489;27;20548;-59
2022/04/08 09:59:03;;;;;;;3.47;1.15;;;13.60;98.80;;;;;;5082956;28;20568;-59
2022/04/08 10:01:46;;;;;;;3.38;1.65;;;13.60;98.30;;;;;;5104834;27;21281;-59
2022/04/08 10:04:27;;;;;;;2.97;0.82;;;13.50;99.00;;;;;;5084206;28;21188;-59
2022/04/08 10:07:08;;;;;;;2.83;1.10;;;13.40;98.40;;;;;;5084670;27;20541;-59
2022/04/08 10:09:56;;;;;;;5.38;1.52;;;13.00;98.20;;;;;;5083812;28;20592;-59
2022/04/08 10:12:44;;;;;;;2.80;1.20;;;12.80;99.00;;;;;;5104790;27;20567;-59
2022/04/08 10:15:30;;;;;;;1.83;0.98;;;12.40;99.90;;;;;;5105001;27;20553;-59
2022/04/08 10:18:10;;;;;;;5.97;1.27;;;12.30;99.90;;;;;;5085139;27;20570;-59
2022/04/08 10:20:49;;;;;;;2.60;1.10;;;12.50;99.90;;;;;;5084102;27;20573;-59
2022/04/08 10:23:37;;;;;;;5.28;1.45;;;12.80;99.90;;;;;;5104564;27;21034;-59
2022/04/08 10:26:21;;;;;;;2.03;1.10;;;13.10;99.50;;;;;;5084953;27;20573;-59
2022/04/08 10:29:12;;;;;;;1.00;0.77;;;13.20;99.20;;;;;;5084652;28;20680;-59
2022/04/08 10:32:01;;;;;;;2.08;0.60;;;13.00;99.90;;;;;;5084928;27;20554;-59
2022/04/08 10:34:42;;;;;;;2.40;0.70;;;13.00;98.50;;;;;;5145708;27;20546;-59
2022/04/08 10:37:24;;;;;;;2.95;0.75;;;13.10;99.40;;;;;;5084932;27;20573;-59
2022/04/08 10:40:05;;;;;;;1.90;0.70;;;13.50;98.40;;;;;;5104062;27;20987;-59
2022/04/08 10:42:45;;;;;;;11.70;1.08;;;13.80;99.50;;;;;;5125889;27;20553;-59
2022/04/08 10:45:24;;;;;;;1.33;0.73;;;14.20;97.40;;;;;;5084792;27;20972;-60
2022/04/08 10:48:14;;;;;;;1.13;0.90;;;14.50;97.40;;;;;;5105307;27;20563;-60
2022/04/08 10:53:44;;;;;;;2.75;0.70;;;14.80;95.50;;;;;;5125226;27;20680;-59
2022/04/08 10:56:34;;;;;;;2.00;0.88;;;14.60;94.10;;;;;;5084610;28;20539;-59
2022/04/08 10:59:13;;;;;;;1.08;0.70;;;14.30;95.50;;;;;;5103224;27;20568;-59
2022/04/08 11:02:02;;;;;;;2.03;1.10;;;13.70;96.80;;;;;;5105032;27;20550;-59
2022/04/08 11:04:42;;;;;;;1.35;1.15;;;13.40;98.70;;;;;;5084070;27;20547;-59
2022/04/08 11:07:22;;;;;;;3.67;0.93;;;13.30;99.90;;;;;;5125876;27;21088;-59
2022/04/08 11:10:03;;;;;;;2.35;0.80;;;13.20;98.80;;;;;;5083740;28;20575;-59
2022/04/08 11:12:48;;;;;;;4.75;1.08;;;13.20;99.90;;;;;;5146174;27;21218;-59
2022/04/08 11:15:30;;;;;;;3.88;0.57;;;13.40;99.90;;;;;;5104582;27;20542;-59
2022/04/08 11:18:10;;;;;;;2.58;1.00;;;13.80;99.90;;;;;;5085233;27;20901;-59
2022/04/08 11:20:51;;;;;;;3.03;1.40;;;13.90;99.90;;;;;;5124638;27;20544;-59
2022/04/08 11:23:32;;;;;;;2.08;1.15;;;13.70;99.90;;;;;;5145798;27;20675;-59
2022/04/08 11:26:13;;;;;;;1.67;0.80;;;13.20;99.90;;;;;;5105199;27;20681;-59
2022/04/08 11:28:53;;;;;;;2.42;1.08;;;13.00;99.90;;;;;;5084878;27;20560;-59
2022/04/08 11:31:33;;;;;;;2.67;1.25;;;12.70;99.90;;;;;;5125236;27;21047;-59
2022/04/08 11:34:14;;;;;;;2.30;1.35;;;12.50;99.90;;;;;;5104598;27;21007;-59
2022/04/08 11:36:54;;;;;;;4.32;1.67;;;12.50;99.90;;;;;;5084664;27;20563;-59
2022/04/08 11:39:34;;;;;;;3.08;0.95;;;12.60;99.90;;;;;;5124239;27;20895;-59
2022/04/08 11:42:16;;;;;;;2.40;0.93;;;12.50;99.90;;;;;;5084845;27;20995;-59
2022/04/08 11:44:56;;;;;;;2.35;0.70;;;12.20;99.90;;;;;;5084097;27;20573;-59
2022/04/08 11:47:40;;;;;;;2.53;0.55;;;11.90;99.90;;;;;;5125677;27;20597;-59
2022/04/08 11:50:26;;;;;;;2.15;1.25;;;11.50;99.90;;;;;;5124528;27;20551;-59
2022/04/08 11:53:14;;;;;;;4.05;0.90;;;11.50;99.90;;;;;;5084687;27;20581;-60
2022/04/08 11:55:55;;;;;;;3.70;1.45;;;11.50;99.90;;;;;;5084823;27;20909;-59
2022/04/08 11:58:35;;;;;;;2.90;1.88;;;11.60;99.90;;;;;;5082921;28;20672;-59
2022/04/08 12:01:15;;;;;;;2.80;1.60;;;11.80;99.90;;;;;;5104163;27;20538;-59
2022/04/08 12:03:59;;;;;;;4.68;0.90;;;11.70;99.90;;;;;;5083751;27;20569;-59
2022/04/08 12:06:40;;;;;;;1.10;1.00;;;11.50;99.90;;;;;;5085442;27;21273;-60
2022/04/08 12:09:21;;;;;;;2.10;1.10;;;11.10;99.90;;;;;;5145454;27;20562;-59
2022/04/08 12:12:01;;;;;;;2.05;1.42;;;10.50;99.90;;;;;;5085016;27;20581;-60
2022/04/08 12:14:42;;;;;;;5.38;1.20;;;10.10;99.90;;;;;;5083867;28;21072;-59
2022/04/08 12:17:22;;;;;;;3.78;1.50;;;9.80;99.90;;;;;;5105295;27;20534;-60
2022/04/08 12:20:02;;;;;;;2.75;2.08;;;10.00;99.90;;;;;;5072168;27;20704;-59
2022/04/08 12:22:42;;;;;;;3.88;1.00;;;10.30;99.90;;;;;;5148776;27;20556;-60
2022/04/08 12:25:22;;;;;;;1.92;0.90;;;10.40;99.90;;;;;;5083924;28;20590;-59
2022/04/08 12:28:01;;;;;;;2.83;1.05;;;10.20;99.90;;;;;;5104789;27;20575;-59
2022/04/08 12:30:41;;;;;;;2.53;1.23;;;10.00;99.90;;;;;;5123515;27;20987;-60
2022/04/08 12:33:21;;;;;;;1.80;1.20;;;9.90;99.90;;;;;;5104038;27;20571;-59
2022/04/08 12:36:01;;;;;;;2.20;1.02;;;9.60;99.90;;;;;;5125534;27;20573;-60
2022/04/08 12:38:42;;;;;;;1.50;0.77;;;9.50;99.90;;;;;;5084951;28;21103;-60
2022/04/08 12:41:21;;;;;;;1.05;0.77;;;9.50;99.90;;;;;;5083810;27;20573;-59
2022/04/08 12:44:00;;;;;;;1.67;0.80;;;9.40;99.90;;;;;;5083414;27;20679;-59
2022/04/08 12:46:41;;;;;;;1.15;0.77;;;9.30;99.90;;;;;;5071082;28;20566;-60
2022/04/08 12:49:20;;;;;;;1.55;1.00;;;9.10;99.90;;;;;;5072396;27;20575;-59
2022/04/08 12:52:00;;;;;;;2.38;1.05;;;9.10;99.90;;;;;;5095243;27;20567;-60
2022/04/08 12:54:40;;;;;;;1.20;0.68;;;9.00;99.90;;;;;;5104178;27;20542;-59
2022/04/08 12:57:20;;;;;;;1.10;0.80;;;9.00;99.90;;;;;;5104667;27;20573;-60
2022/04/08 12:59:59;;;;;;;1.35;0.93;;;9.00;99.90;;;;;;5101645;27;20587;-60
2022/04/08 13:02:42;;;;;;;2.03;1.00;;;8.90;99.90;;;;;;5098348;22;20613;-60
2022/04/08 13:05:23;;;;;;;0.57;0.57;;;8.90;99.90;;;;;;5103867;27;20542;-60
2022/04/08 13:08:02;;;;;;;1.60;0.90;;;8.80;99.90;;;;;;5104716;27;20541;-59
2022/04/08 13:10:43;;;;;;;1.67;0.90;;;8.60;99.90;;;;;;5123100;27;20552;-60
2022/04/08 13:13:22;;;;;;;0.90;0.77;;;8.50;99.90;;;;;;5087586;27;20609;-59
2022/04/08 13:16:02;;;;;;;1.55;0.90;;;8.40;99.90;;;;;;5145706;27;20542;-60
2022/04/08 13:18:41;;;;;;;1.20;1.10;;;8.20;99.90;;;;;;5084118;27;20544;-59
2022/04/08 13:21:22;;;;;;;1.70;1.35;;;8.10;99.90;;;;;;5103873;27;20537;-61
2022/04/08 13:24:01;;;;;;;3.40;2.53;;;8.00;99.90;;;;;;5145476;27;20546;-60
2022/04/08 13:26:41;;;;;;;2.75;1.15;;;7.80;99.90;;;;;;5125106;27;20569;-60
2022/04/08 13:29:21;;;;;;;1.38;1.10;;;7.70;99.90;;;;;;5145517;27;21102;-59
2022/04/08 13:32:01;;;;;;;1.02;0.80;;;7.70;99.90;;;;;;5105209;27;20564;-59
2022/04/08 13:34:40;;;;;;;2.60;1.77;;;7.60;99.90;;;;;;5104262;27;20669;-59
2022/04/08 13:37:20;;;;;;;1.60;1.17;;;7.50;99.90;;;;;;5105738;27;20546;-59
2022/04/08 13:40:00;;;;;;;2.45;1.27;;;7.40;99.90;;;;;;5124449;27;20548;-60
2022/04/08 13:42:40;;;;;;;1.67;1.58;;;7.30;99.90;;;;;;5125617;27;21208;-59
2022/04/08 13:45:20;;;;;;;1.65;1.55;;;7.30;99.90;;;;;;5145517;27;20546;-60
2022/04/08 13:47:59;;;;;;;2.00;0.75;;;7.20;99.90;;;;;;5125679;27;20560;-60
2022/04/08 13:50:39;;;;;;;1.45;1.35;;;7.20;99.90;;;;;;5103788;27;20553;-59
2022/04/08 13:53:21;;;;;;;2.20;2.00;;;7.10;99.90;;;;;;5155201;27;20691;-58
2022/04/08 13:56:01;;;;;;;1.70;1.60;;;7.00;99.90;;;;;;5105239;27;20669;-60
2022/04/08 13:58:40;;;;;;;2.42;1.50;;;6.90;99.90;;;;;;5123885;27;20543;-59
2022/04/08 14:01:21;;;;;;;2.45;1.60;;;6.90;99.90;;;;;;5145567;27;20566;-59
2022/04/08 14:04:00;;;;;;;1.00;0.93;;;6.80;99.90;;;;;;5125099;27;21037;-60